createdAt,value
2019-02-25T00:02:37.994Z,188.43
2019-02-25T00:05:42.254Z,197.50
2019-02-25T00:08:46.828Z,192.40
2019-02-25T00:11:51.211Z,174.93
2019-02-25T00:14:55.579Z,163.93
2019-02-25T00:17:59.786Z,152.07
2019-02-25T00:21:04.179Z,147.87
2019-02-25T00:24:08.517Z,155.63
2019-02-25T00:27:12.824Z,148.50
2019-02-25T00:30:17.156Z,181.90
2019-02-25T00:33:22.774Z,164.17
2019-02-25T00:36:27.031Z,147.30
2019-02-25T00:39:31.320Z,142.53
2019-02-25T00:42:35.678Z,144.27
2019-02-25T00:45:39.923Z,149.03
2019-02-25T00:48:45.177Z,141.13
2019-02-25T00:51:49.495Z,153.67
2019-02-25T00:54:53.868Z,176.27
2019-02-25T00:57:58.166Z,170.47
2019-02-25T01:01:02.417Z,168.93
2019-02-25T01:04:06.820Z,174.30
2019-02-25T01:07:11.283Z,199.40
2019-02-25T01:10:16.704Z,161.90
2019-02-25T01:13:21.084Z,140.80
2019-02-25T01:16:25.430Z,139.87
2019-02-25T01:19:29.716Z,147.90
2019-02-25T01:22:34.012Z,145.83
2019-02-25T01:25:38.264Z,150.17
2019-02-25T01:28:42.476Z,146.20
2019-02-25T01:31:46.666Z,137.57
2019-02-25T01:34:51.250Z,125.67
2019-02-25T01:37:55.585Z,137.67
2019-02-25T01:40:59.951Z,120.83
2019-02-25T01:44:04.387Z,135.87
2019-02-25T01:47:08.748Z,146.27
2019-02-25T01:50:13.658Z,152.30
2019-02-25T01:53:17.972Z,193.70
2019-02-25T01:56:22.340Z,194.50
2019-02-25T01:59:26.709Z,168.03
2019-02-25T02:02:30.974Z,154.40
2019-02-25T02:05:35.321Z,166.57
2019-02-25T02:08:39.573Z,201.63
2019-02-25T02:11:43.931Z,203.30
2019-02-25T02:14:48.144Z,146.67
2019-02-25T02:17:52.505Z,173.47
2019-02-25T02:20:56.955Z,181.23
2019-02-25T02:24:01.335Z,149.73
2019-02-25T02:27:05.665Z,161.17
2019-02-25T02:30:12.994Z,162.90
2019-02-25T02:33:17.352Z,153.23
2019-02-25T02:36:21.733Z,197.80
2019-02-25T02:39:26.061Z,142.73
2019-02-25T02:42:30.423Z,136.20
2019-02-25T02:45:38.052Z,133.00
2019-02-25T02:48:55.068Z,117.23
2019-02-25T02:51:59.329Z,117.57
2019-02-25T02:55:04.094Z,122.87
2019-02-25T02:58:08.452Z,120.53
2019-02-25T03:01:12.754Z,131.17
2019-02-25T03:04:17.105Z,118.00
2019-02-25T03:07:21.412Z,125.60
2019-02-25T03:10:25.697Z,128.53
2019-02-25T03:13:29.984Z,112.30
2019-02-25T03:16:34.255Z,108.33
2019-02-25T03:19:38.583Z,113.67
2019-02-25T03:22:42.919Z,112.23
2019-02-25T03:25:47.285Z,110.83
2019-02-25T03:28:51.545Z,108.87
2019-02-25T03:31:55.845Z,102.97
2019-02-25T03:35:00.303Z,113.23
2019-02-25T03:38:04.890Z,108.20
2019-02-25T03:41:09.349Z,112.70
2019-02-25T03:44:13.579Z,109.60
2019-02-25T03:47:17.916Z,116.93
2019-02-25T03:50:22.232Z,120.43
2019-02-25T03:53:26.500Z,119.73
2019-02-25T03:56:30.862Z,127.47
2019-02-25T03:59:35.239Z,114.47
2019-02-25T04:02:40.412Z,125.90
2019-02-25T04:05:44.681Z,123.07
2019-02-25T04:08:49.073Z,113.10
2019-02-25T04:11:53.771Z,109.67
2019-02-25T04:14:57.995Z,117.53
2019-02-25T04:18:02.252Z,109.60
2019-02-25T04:21:06.546Z,103.03
2019-02-25T04:24:10.806Z,115.13
2019-02-25T04:27:15.180Z,111.33
2019-02-25T04:30:19.662Z,111.77
2019-02-25T04:33:23.950Z,109.00
2019-02-25T04:36:28.291Z,109.63
2019-02-25T04:39:32.585Z,109.97
2019-02-25T04:42:36.861Z,110.93
2019-02-25T04:45:41.168Z,118.93
2019-02-25T04:48:45.489Z,129.83
2019-02-25T04:51:49.774Z,143.03
2019-02-25T04:54:54.066Z,136.00
2019-02-25T04:57:58.435Z,117.47
2019-02-25T05:01:02.779Z,124.97
2019-02-25T05:04:07.156Z,125.03
2019-02-25T05:07:11.499Z,148.23
2019-02-25T05:10:15.886Z,140.10
2019-02-25T05:13:20.232Z,144.30
2019-02-25T05:16:24.631Z,139.40
2019-02-25T05:19:28.978Z,125.67
2019-02-25T05:22:33.271Z,113.60
2019-02-25T05:25:37.529Z,111.93
2019-02-25T05:28:41.900Z,113.03
2019-02-25T05:31:46.175Z,107.67
2019-02-25T05:34:50.629Z,120.47
2019-02-25T05:37:54.976Z,111.97
2019-02-25T05:40:59.274Z,120.27
2019-02-25T05:44:03.585Z,110.97
2019-02-25T05:47:07.876Z,122.57
2019-02-25T05:50:14.676Z,133.60
2019-02-25T05:53:18.887Z,133.87
2019-02-25T05:56:23.153Z,136.23
2019-02-25T05:59:27.435Z,124.07
2019-02-25T06:02:31.768Z,127.80
2019-02-25T06:05:36.123Z,128.77
2019-02-25T06:08:40.474Z,120.47
2019-02-25T06:11:44.835Z,115.23
2019-02-25T06:14:49.466Z,108.73
2019-02-25T06:17:53.890Z,101.70
2019-02-25T06:20:58.242Z,105.50
2019-02-25T06:24:02.663Z,108.53
2019-02-25T06:27:07.023Z,105.40
2019-02-25T06:30:14.335Z,98.90
2019-02-25T06:33:18.730Z,88.03
2019-02-25T06:36:23.106Z,92.43
2019-02-25T06:39:27.375Z,84.27
2019-02-25T06:42:31.745Z,86.70
2019-02-25T06:45:36.106Z,90.93
2019-02-25T06:48:40.406Z,83.00
2019-02-25T06:51:44.690Z,86.80
2019-02-25T06:54:48.965Z,88.27
2019-02-25T06:57:54.302Z,78.87
2019-02-25T07:00:59.143Z,75.07
2019-02-25T07:04:35.865Z,79.60
2019-02-25T07:07:51.174Z,78.37
2019-02-25T07:11:04.246Z,85.07
2019-02-25T07:14:33.515Z,76.97
2019-02-25T07:17:56.765Z,73.90
2019-02-25T07:21:26.144Z,73.93
2019-02-25T07:24:53.029Z,72.87
2019-02-25T07:28:22.621Z,83.90
2019-02-25T07:31:54.651Z,75.10
2019-02-25T07:35:18.042Z,78.33
2019-02-25T07:38:44.340Z,76.70
2019-02-25T07:42:07.361Z,77.27
2019-02-25T07:45:31.376Z,72.23
2019-02-25T07:48:55.872Z,85.97
2019-02-25T07:52:15.190Z,67.07
2019-02-25T07:55:47.890Z,63.43
2019-02-25T07:59:01.566Z,59.00
2019-02-25T08:02:23.920Z,65.50
2019-02-25T08:05:56.210Z,64.60
2019-02-25T08:09:26.683Z,69.23
2019-02-25T08:12:43.889Z,59.57
2019-02-25T08:16:10.369Z,56.33
2019-02-25T08:19:20.721Z,63.03
2019-02-25T08:22:35.209Z,56.80
2019-02-25T08:25:57.107Z,59.47
2019-02-25T08:29:19.313Z,58.80
2019-02-25T08:32:30.965Z,59.07
2019-02-25T08:36:41.142Z,58.13
2019-02-25T08:40:01.118Z,52.57
2019-02-25T08:43:31.772Z,54.17
2019-02-25T08:46:47.692Z,60.23
2019-02-25T08:50:00.929Z,57.07
2019-02-25T08:53:05.265Z,53.40
2019-02-25T08:56:09.599Z,54.17
2019-02-25T08:59:13.853Z,57.20
2019-02-25T09:02:18.216Z,69.93
2019-02-25T09:05:22.424Z,61.60
2019-02-25T09:08:26.763Z,58.23
2019-02-25T09:11:31.091Z,58.40
2019-02-25T09:14:35.405Z,67.10
2019-02-25T09:17:45.040Z,57.90
2019-02-25T09:20:49.593Z,63.47
2019-02-25T09:23:53.930Z,60.77
2019-02-25T09:26:58.215Z,56.80
2019-02-25T09:30:02.477Z,61.00
2019-02-25T09:33:06.702Z,58.37
2019-02-25T09:36:11.050Z,64.17
2019-02-25T09:39:16.832Z,66.77
2019-02-25T09:42:21.299Z,63.57
2019-02-25T09:45:25.675Z,57.97
2019-02-25T09:48:30.026Z,60.10
2019-02-25T09:51:34.565Z,57.27
2019-02-25T09:54:38.918Z,55.50
2019-02-25T09:57:43.213Z,54.23
2019-02-25T10:00:47.546Z,52.97
2019-02-25T10:03:51.929Z,52.97
2019-02-25T10:07:02.283Z,52.23
2019-02-25T10:10:02.171Z,49.53
2019-02-25T10:13:06.427Z,53.37
2019-02-25T10:16:10.644Z,51.20
2019-02-25T10:19:16.736Z,46.73
2019-02-25T10:22:21.058Z,53.53
2019-02-25T10:25:25.320Z,52.43
2019-02-25T10:28:29.576Z,53.27
2019-02-25T10:31:33.923Z,46.17
2019-02-25T10:34:38.293Z,47.93
2019-02-25T10:37:43.775Z,48.73
2019-02-25T10:40:49.529Z,45.67
2019-02-25T10:43:54.191Z,50.43
2019-02-25T10:46:58.498Z,52.10
2019-02-25T10:50:03.218Z,46.17
2019-02-25T10:53:08.832Z,49.93
2019-02-25T10:56:26.287Z,47.70
2019-02-25T10:59:32.234Z,45.73
2019-02-25T11:02:43.993Z,48.30
2019-02-25T11:05:42.570Z,45.90
2019-02-25T11:08:51.814Z,48.80
2019-02-25T11:11:58.019Z,49.67
2019-02-25T11:15:02.328Z,45.13
2019-02-25T11:18:07.854Z,48.40
2019-02-25T11:21:12.199Z,48.33
2019-02-25T11:24:17.122Z,45.80
2019-02-25T11:27:22.551Z,43.07
2019-02-25T11:30:26.939Z,49.60
2019-02-25T11:33:32.588Z,43.37
2019-02-25T11:36:37.261Z,49.03
2019-02-25T11:39:41.585Z,43.80
2019-02-25T11:42:45.807Z,46.87
2019-02-25T11:45:50.150Z,42.87
2019-02-25T11:48:54.546Z,44.57
2019-02-25T11:51:58.885Z,48.73
2019-02-25T11:55:03.318Z,45.60
2019-02-25T11:58:07.669Z,43.43
2019-02-25T12:01:12.060Z,39.47
2019-02-25T12:04:16.443Z,47.13
2019-02-25T12:07:20.885Z,39.23
2019-02-25T12:10:25.252Z,41.50
2019-02-25T12:13:29.690Z,42.93
2019-02-25T12:16:34.035Z,40.87
2019-02-25T12:19:38.266Z,41.93
2019-02-25T12:22:42.805Z,42.23
2019-02-25T12:25:47.033Z,38.57
2019-02-25T12:28:51.359Z,39.50
2019-02-25T12:31:55.597Z,38.57
2019-02-25T12:34:59.881Z,43.50
2019-02-25T12:38:04.586Z,40.23
2019-02-25T12:41:10.319Z,35.47
2019-02-25T12:44:15.234Z,37.47
2019-02-25T12:47:19.481Z,36.57
2019-02-25T12:50:24.156Z,33.47
2019-02-25T12:53:28.436Z,37.77
2019-02-25T12:56:32.945Z,33.97
2019-02-25T12:59:37.299Z,36.00
2019-02-25T13:02:41.593Z,40.20
2019-02-25T13:05:45.933Z,36.93
2019-02-25T13:08:50.338Z,39.17
2019-02-25T13:11:54.681Z,40.33
2019-02-25T13:14:58.981Z,37.47
2019-02-25T13:18:03.346Z,38.27
2019-02-25T13:21:07.717Z,38.00
2019-02-25T13:24:12.075Z,36.83
2019-02-25T13:27:16.512Z,38.83
2019-02-25T13:30:20.788Z,41.60
2019-02-25T13:33:25.090Z,46.10
2019-02-25T13:36:29.390Z,39.87
2019-02-25T13:39:33.799Z,40.73
2019-02-25T13:42:38.192Z,46.37
2019-02-25T13:45:42.580Z,37.20
2019-02-25T13:48:46.949Z,38.50
2019-02-25T13:51:51.371Z,46.20
2019-02-25T13:54:55.749Z,45.27
2019-02-25T13:58:00.151Z,39.70
2019-02-25T14:01:07.494Z,40.17
2019-02-25T14:04:11.802Z,40.57
2019-02-25T14:07:16.157Z,40.00
2019-02-25T14:10:21.002Z,43.53
2019-02-25T14:13:25.457Z,42.57
2019-02-25T14:16:29.889Z,45.53
2019-02-25T14:19:34.288Z,44.90
2019-02-25T14:22:38.717Z,39.37
2019-02-25T14:25:43.068Z,42.57
2019-02-25T14:28:48.694Z,46.20
2019-02-25T14:31:53.036Z,48.23
2019-02-25T14:34:57.973Z,44.93
2019-02-25T14:38:07.621Z,40.60
2019-02-25T14:41:11.185Z,41.93
2019-02-25T14:44:17.532Z,46.30
2019-02-25T14:47:25.813Z,46.97
2019-02-25T14:50:27.912Z,42.33
2019-02-25T14:53:32.468Z,46.03
2019-02-25T14:56:36.929Z,47.07
2019-02-25T14:59:41.460Z,42.37
2019-02-25T15:02:47.740Z,40.97
2019-02-25T15:05:53.270Z,40.20
2019-02-25T15:08:59.578Z,49.10
2019-02-25T15:12:06.417Z,41.80
2019-02-25T15:15:12.138Z,45.37
2019-02-25T15:18:16.504Z,41.67
2019-02-25T15:21:20.919Z,43.53
2019-02-25T15:24:25.461Z,43.67
2019-02-25T15:27:29.803Z,46.10
2019-02-25T15:30:34.366Z,43.30
2019-02-25T15:33:40.414Z,45.87
2019-02-25T15:36:45.276Z,44.77
2019-02-25T15:39:49.678Z,51.47
2019-02-25T15:43:12.665Z,43.57
2019-02-25T15:46:16.678Z,45.33
2019-02-25T15:49:21.770Z,43.13
2019-02-25T15:52:27.718Z,47.50
2019-02-25T15:55:32.940Z,50.00
2019-02-25T15:58:37.296Z,48.23
2019-02-25T16:01:41.595Z,54.80
2019-02-25T16:04:45.872Z,49.87
2019-02-25T16:07:51.880Z,56.30
2019-02-25T16:11:06.890Z,51.93
2019-02-25T16:14:11.538Z,50.20
2019-02-25T16:17:15.899Z,55.33
2019-02-25T16:20:20.431Z,53.67
2019-02-25T16:23:25.766Z,50.87
2019-02-25T16:26:32.061Z,55.30
2019-02-25T16:29:37.259Z,62.50
2019-02-25T16:32:42.616Z,53.27
2019-02-25T16:35:47.842Z,51.23
2019-02-25T16:38:55.557Z,52.37
2019-02-25T16:41:58.229Z,50.07
2019-02-25T16:45:04.108Z,57.63
2019-02-25T16:48:09.015Z,56.67
2019-02-25T16:51:13.643Z,55.47
2019-02-25T16:54:20.207Z,63.13
2019-02-25T16:57:25.077Z,68.17
2019-02-25T17:00:30.570Z,79.13
2019-02-25T17:03:37.590Z,69.63
2019-02-25T17:06:41.738Z,75.37
2019-02-25T17:09:46.177Z,72.07
2019-02-25T17:12:52.643Z,77.97
2019-02-25T17:15:56.788Z,75.53
2019-02-25T17:19:01.344Z,78.33
2019-02-25T17:22:05.788Z,82.03
2019-02-25T17:25:12.142Z,75.90
2019-02-25T17:28:19.751Z,85.70
2019-02-25T17:31:22.610Z,88.20
2019-02-25T17:34:26.998Z,108.37
2019-02-25T17:37:33.615Z,118.43
2019-02-25T17:40:37.654Z,146.13
2019-02-25T17:43:43.098Z,167.53
2019-02-25T17:46:47.610Z,178.27
2019-02-25T17:49:52.084Z,193.63
2019-02-25T17:52:56.482Z,198.03
2019-02-25T17:56:00.923Z,198.27
2019-02-25T17:59:05.957Z,184.77
2019-02-25T18:02:12.707Z,186.73
2019-02-25T18:05:19.102Z,180.93
2019-02-25T18:08:23.985Z,166.10
2019-02-25T18:11:28.478Z,169.43
2019-02-25T18:14:33.142Z,174.47
2019-02-25T18:17:38.813Z,176.03
2019-02-25T18:20:43.492Z,181.90
2019-02-25T18:23:49.360Z,182.33
2019-02-25T18:26:54.371Z,191.93
2019-02-25T18:29:59.583Z,186.60
2019-02-25T18:33:05.221Z,199.53
2019-02-25T18:36:11.269Z,210.23
2019-02-25T18:39:15.603Z,223.40
2019-02-25T18:42:20.287Z,247.93
2019-02-25T18:45:25.509Z,243.37
2019-02-25T18:48:29.976Z,271.67
2019-02-25T18:51:35.870Z,260.97
2019-02-25T18:54:41.269Z,241.80
2019-02-25T18:57:53.766Z,233.97
2019-02-25T19:00:58.466Z,239.77
2019-02-25T19:04:03.082Z,230.67
2019-02-25T19:07:08.324Z,240.43
2019-02-25T19:10:16.238Z,249.90
2019-02-25T19:13:23.283Z,238.23
2019-02-25T19:16:27.919Z,238.30
2019-02-25T19:19:34.240Z,236.97
2019-02-25T19:22:39.753Z,247.50
2019-02-25T19:25:44.908Z,257.37
2019-02-25T19:28:50.215Z,251.87
2019-02-25T19:31:56.406Z,240.40
2019-02-25T19:35:03.969Z,255.23
2019-02-25T19:38:10.099Z,240.27
2019-02-25T19:41:17.779Z,238.33
2019-02-25T19:44:22.526Z,235.47
2019-02-25T19:47:26.982Z,245.97
2019-02-25T19:50:32.399Z,239.67
2019-02-25T19:53:40.263Z,257.60
2019-02-25T19:56:45.976Z,244.50
2019-02-25T19:59:52.857Z,239.93
2019-02-25T20:03:05.146Z,240.77
2019-02-25T20:06:03.760Z,253.40
2019-02-25T20:09:08.477Z,255.43
2019-02-25T20:12:12.776Z,270.03
2019-02-25T20:15:20.464Z,256.43
2019-02-25T20:18:24.806Z,269.13
2019-02-25T20:21:30.932Z,266.17
2019-02-25T20:24:35.225Z,281.90
2019-02-25T20:27:39.632Z,294.50
2019-02-25T20:30:44.721Z,295.03
2019-02-25T20:33:50.900Z,293.60
2019-02-25T20:36:57.822Z,288.67
2019-02-25T20:40:02.024Z,287.63
2019-02-25T20:43:06.406Z,290.13
2019-02-25T20:46:10.909Z,290.07
2019-02-25T20:49:18.365Z,296.67
2019-02-25T20:52:22.897Z,286.00
2019-02-25T20:55:29.258Z,289.23
2019-02-25T20:58:35.552Z,284.97
2019-02-25T21:01:42.310Z,285.73
2019-02-25T21:04:47.888Z,293.67
2019-02-25T21:07:53.363Z,284.43
2019-02-25T21:10:59.862Z,280.50
2019-02-25T21:14:03.770Z,278.73
2019-02-25T21:17:08.143Z,268.97
2019-02-25T21:20:13.655Z,253.00
2019-02-25T21:23:18.160Z,258.83
2019-02-25T21:26:25.382Z,261.93
2019-02-25T21:29:29.351Z,250.47
2019-02-25T21:32:34.232Z,255.03
2019-02-25T21:35:39.712Z,255.00
2019-02-25T21:38:45.319Z,242.50
2019-02-25T21:41:50.557Z,239.53
2019-02-25T21:44:56.910Z,224.00
2019-02-25T21:48:01.860Z,231.60
2019-02-25T21:51:08.026Z,223.80
2019-02-25T21:54:13.112Z,214.47
2019-02-25T21:57:17.552Z,219.50
2019-02-25T22:00:21.963Z,214.17
2019-02-25T22:03:26.312Z,211.90
2019-02-25T22:06:31.594Z,232.27
2019-02-25T22:09:41.871Z,216.67
2019-02-25T22:12:44.402Z,217.90
2019-02-25T22:15:49.135Z,218.50
2019-02-25T22:18:54.285Z,205.83
2019-02-25T22:22:00.444Z,236.83
2019-02-25T22:25:08.583Z,258.90
2019-02-25T22:28:12.462Z,258.77
2019-02-25T22:31:18.115Z,265.40
2019-02-25T22:34:23.544Z,255.17
2019-02-25T22:37:29.278Z,241.23
2019-02-25T22:40:36.241Z,226.53
2019-02-25T22:43:43.174Z,221.80
2019-02-25T22:46:46.238Z,213.97
2019-02-25T22:49:50.544Z,202.87
2019-02-25T22:52:58.267Z,202.13
2019-02-25T22:56:00.958Z,195.13
2019-02-25T22:59:05.304Z,186.23
2019-02-25T23:02:10.885Z,178.67
2019-02-25T23:05:18.590Z,178.03
2019-02-25T23:08:23.425Z,183.23
2019-02-25T23:11:27.719Z,174.07
2019-02-25T23:14:34.000Z,175.47
2019-02-25T23:17:40.024Z,179.90
2019-02-25T23:20:44.293Z,172.03
2019-02-25T23:23:51.233Z,182.90
2019-02-25T23:26:55.198Z,173.70
2019-02-25T23:30:00.498Z,169.23
2019-02-25T23:33:04.819Z,168.53
2019-02-25T23:36:11.050Z,165.70
2019-02-25T23:39:17.723Z,182.27
2019-02-25T23:42:21.698Z,195.97
2019-02-25T23:45:26.126Z,202.63
2019-02-25T23:48:33.044Z,227.73
2019-02-25T23:51:37.706Z,203.40
2019-02-25T23:54:45.239Z,218.03
2019-02-25T23:57:48.242Z,217.73
